sensor_id;sensor_type;location;lat;lon;timestamp;temperature;humidity
69715;HTU21D;56981;53.532;49.398;2023-11-18T00:00:23;-0.27;70.84
69715;HTU21D;56981;53.532;49.398;2023-11-18T00:02:50;-0.29;70.68
69715;HTU21D;56981;53.532;49.398;2023-11-18T00:05:17;-0.32;71.33
69715;HTU21D;56981;53.532;49.398;2023-11-18T00:07:43;-0.34;71.26
69715;HTU21D;56981;53.532;49.398;2023-11-18T00:10:10;-0.32;71.19
69715;HTU21D;56981;53.532;49.398;2023-11-18T00:12:36;-0.35;71.96
69715;HTU21D;56981;53.532;49.398;2023-11-18T00:15:05;-0.42;71.42
69715;HTU21D;56981;53.532;49.398;2023-11-18T00:17:34;-0.45;72.32
69715;HTU21D;56981;53.532;49.398;2023-11-18T00:20:00;-0.46;72.71
69715;HTU21D;56981;53.532;49.398;2023-11-18T00:22:26;-0.45;73.57
69715;HTU21D;56981;53.532;49.398;2023-11-18T00:24:53;-0.44;74.21
69715;HTU21D;56981;53.532;49.398;2023-11-18T00:27:21;-0.45;74.92
69715;HTU21D;56981;53.532;49.398;2023-11-18T00:29:48;-0.45;75.02
69715;HTU21D;56981;53.532;49.398;2023-11-18T00:32:14;-0.45;75.28
69715;HTU21D;56981;53.532;49.398;2023-11-18T00:34:40;-0.53;75.08
69715;HTU21D;56981;53.532;49.398;2023-11-18T00:37:06;-0.52;75.83
69715;HTU21D;56981;53.532;49.398;2023-11-18T00:39:33;-0.54;75.35
69715;HTU21D;56981;53.532;49.398;2023-11-18T00:41:59;-0.54;75.47
69715;HTU21D;56981;53.532;49.398;2023-11-18T00:44:25;-0.51;75.10
69715;HTU21D;56981;53.532;49.398;2023-11-18T00:46:51;-0.53;75.10
69715;HTU21D;56981;53.532;49.398;2023-11-18T00:49:18;-0.55;74.57
69715;HTU21D;56981;53.532;49.398;2023-11-18T00:51:44;-0.64;75.06
69715;HTU21D;56981;53.532;49.398;2023-11-18T00:54:10;-0.65;75.17
69715;HTU21D;56981;53.532;49.398;2023-11-18T00:56:38;-0.64;75.89
69715;HTU21D;56981;53.532;49.398;2023-11-18T00:59:04;-0.61;73.99
69715;HTU21D;56981;53.532;49.398;2023-11-18T01:01:32;-0.71;73.07
69715;HTU21D;56981;53.532;49.398;2023-11-18T01:03:58;-0.76;71.85
69715;HTU21D;56981;53.532;49.398;2023-11-18T01:06:26;-0.88;72.38
69715;HTU21D;56981;53.532;49.398;2023-11-18T01:08:52;-0.94;72.90
69715;HTU21D;56981;53.532;49.398;2023-11-18T01:11:19;-0.91;72.51
69715;HTU21D;56981;53.532;49.398;2023-11-18T01:13:46;-0.99;71.20
69715;HTU21D;56981;53.532;49.398;2023-11-18T01:16:12;-1.01;71.58
69715;HTU21D;56981;53.532;49.398;2023-11-18T01:18:41;-1.01;71.36
69715;HTU21D;56981;53.532;49.398;2023-11-18T01:21:07;-1.00;71.13
69715;HTU21D;56981;53.532;49.398;2023-11-18T01:23:37;-1.06;71.19
69715;HTU21D;56981;53.532;49.398;2023-11-18T01:26:05;-1.14;70.85
69715;HTU21D;56981;53.532;49.398;2023-11-18T01:28:34;-1.18;70.55
69715;HTU21D;56981;53.532;49.398;2023-11-18T01:31:07;-1.30;69.10
69715;HTU21D;56981;53.532;49.398;2023-11-18T01:33:39;-1.48;69.24
69715;HTU21D;56981;53.532;49.398;2023-11-18T01:36:07;-1.55;69.58
69715;HTU21D;56981;53.532;49.398;2023-11-18T01:38:36;-1.58;69.25
69715;HTU21D;56981;53.532;49.398;2023-11-18T01:41:06;-1.79;66.92
69715;HTU21D;56981;53.532;49.398;2023-11-18T01:43:33;-1.87;67.62
69715;HTU21D;56981;53.532;49.398;2023-11-18T01:45:59;-1.97;67.43
69715;HTU21D;56981;53.532;49.398;2023-11-18T01:48:29;-2.03;67.04
69715;HTU21D;56981;53.532;49.398;2023-11-18T01:50:57;-2.09;67.89
69715;HTU21D;56981;53.532;49.398;2023-11-18T01:53:26;-2.17;66.78
69715;HTU21D;56981;53.532;49.398;2023-11-18T01:55:54;-2.24;67.65
69715;HTU21D;56981;53.532;49.398;2023-11-18T01:58:20;-2.31;67.77
69715;HTU21D;56981;53.532;49.398;2023-11-18T02:00:49;-2.37;68.50
69715;HTU21D;56981;53.532;49.398;2023-11-18T02:03:17;-2.42;68.54
69715;HTU21D;56981;53.532;49.398;2023-11-18T02:05:43;-2.47;68.36
69715;HTU21D;56981;53.532;49.398;2023-11-18T02:08:10;-2.58;68.70
69715;HTU21D;56981;53.532;49.398;2023-11-18T02:10:47;-2.64;69.33
69715;HTU21D;56981;53.532;49.398;2023-11-18T02:15:53;-2.74;68.76
69715;HTU21D;56981;53.532;49.398;2023-11-18T02:18:27;-2.74;69.65
69715;HTU21D;56981;53.532;49.398;2023-11-18T02:20:58;-2.77;69.07
69715;HTU21D;56981;53.532;49.398;2023-11-18T02:23:25;-2.83;69.60
69715;HTU21D;56981;53.532;49.398;2023-11-18T02:25:55;-2.84;69.61
69715;HTU21D;56981;53.532;49.398;2023-11-18T02:28:24;-2.88;68.78
69715;HTU21D;56981;53.532;49.398;2023-11-18T02:30:52;-2.88;67.88
69715;HTU21D;56981;53.532;49.398;2023-11-18T02:33:27;-2.87;67.86
69715;HTU21D;56981;53.532;49.398;2023-11-18T02:36:21;-2.87;68.00
69715;HTU21D;56981;53.532;49.398;2023-11-18T02:38:50;-2.83;68.24
69715;HTU21D;56981;53.532;49.398;2023-11-18T02:41:20;-2.93;68.06
69715;HTU21D;56981;53.532;49.398;2023-11-18T02:43:49;-2.96;68.74
69715;HTU21D;56981;53.532;49.398;2023-11-18T02:46:17;-3.01;67.48
69715;HTU21D;56981;53.532;49.398;2023-11-18T02:48:43;-3.03;68.38
69715;HTU21D;56981;53.532;49.398;2023-11-18T02:51:09;-3.01;68.71
69715;HTU21D;56981;53.532;49.398;2023-11-18T02:53:38;-3.08;67.38
69715;HTU21D;56981;53.532;49.398;2023-11-18T02:56:07;-3.16;68.48
69715;HTU21D;56981;53.532;49.398;2023-11-18T02:58:33;-3.21;68.31
69715;HTU21D;56981;53.532;49.398;2023-11-18T03:00:59;-3.25;69.31
69715;HTU21D;56981;53.532;49.398;2023-11-18T03:03:26;-3.30;68.94
69715;HTU21D;56981;53.532;49.398;2023-11-18T03:05:55;-3.31;69.52
69715;HTU21D;56981;53.532;49.398;2023-11-18T03:08:21;-3.33;69.73
69715;HTU21D;56981;53.532;49.398;2023-11-18T03:10:47;-3.40;69.74
69715;HTU21D;56981;53.532;49.398;2023-11-18T03:13:16;-3.50;69.48
69715;HTU21D;56981;53.532;49.398;2023-11-18T03:15:43;-3.56;70.10
69715;HTU21D;56981;53.532;49.398;2023-11-18T03:18:09;-3.54;70.84
69715;HTU21D;56981;53.532;49.398;2023-11-18T03:20:35;-3.60;69.87
69715;HTU21D;56981;53.532;49.398;2023-11-18T03:23:01;-3.65;70.37
69715;HTU21D;56981;53.532;49.398;2023-11-18T03:25:27;-3.66;70.41
69715;HTU21D;56981;53.532;49.398;2023-11-18T03:27:53;-3.70;70.93
69715;HTU21D;56981;53.532;49.398;2023-11-18T03:30:20;-3.74;70.77
69715;HTU21D;56981;53.532;49.398;2023-11-18T03:32:47;-3.72;70.99
69715;HTU21D;56981;53.532;49.398;2023-11-18T03:35:13;-3.72;71.06
69715;HTU21D;56981;53.532;49.398;2023-11-18T03:37:40;-3.76;70.64
69715;HTU21D;56981;53.532;49.398;2023-11-18T03:40:08;-3.77;71.45
69715;HTU21D;56981;53.532;49.398;2023-11-18T03:42:35;-3.77;71.65
69715;HTU21D;56981;53.532;49.398;2023-11-18T03:45:01;-3.79;71.27
69715;HTU21D;56981;53.532;49.398;2023-11-18T03:47:28;-3.81;71.01
69715;HTU21D;56981;53.532;49.398;2023-11-18T03:49:57;-3.82;71.19
69715;HTU21D;56981;53.532;49.398;2023-11-18T03:52:23;-3.83;71.12
69715;HTU21D;56981;53.532;49.398;2023-11-18T03:54:49;-3.83;71.34
69715;HTU21D;56981;53.532;49.398;2023-11-18T03:57:15;-3.85;71.32
69715;HTU21D;56981;53.532;49.398;2023-11-18T03:59:41;-3.85;71.29
69715;HTU21D;56981;53.532;49.398;2023-11-18T04:02:08;-3.82;71.15
69715;HTU21D;56981;53.532;49.398;2023-11-18T04:04:34;-3.79;71.39
69715;HTU21D;56981;53.532;49.398;2023-11-18T04:07:00;-3.75;71.20
69715;HTU21D;56981;53.532;49.398;2023-11-18T04:09:30;-3.68;71.17
69715;HTU21D;56981;53.532;49.398;2023-11-18T04:11:56;-3.64;70.45
69715;HTU21D;56981;53.532;49.398;2023-11-18T04:14:22;-3.57;70.15
69715;HTU21D;56981;53.532;49.398;2023-11-18T04:16:48;-3.49;69.81
69715;HTU21D;56981;53.532;49.398;2023-11-18T04:19:17;-3.46;68.79
69715;HTU21D;56981;53.532;49.398;2023-11-18T04:21:43;-3.38;68.78
69715;HTU21D;56981;53.532;49.398;2023-11-18T04:24:14;-3.33;69.20
69715;HTU21D;56981;53.532;49.398;2023-11-18T04:26:41;-3.33;68.35
69715;HTU21D;56981;53.532;49.398;2023-11-18T04:29:07;-3.27;68.39
69715;HTU21D;56981;53.532;49.398;2023-11-18T04:31:33;-3.18;68.05
69715;HTU21D;56981;53.532;49.398;2023-11-18T04:34:03;-3.10;68.69
69715;HTU21D;56981;53.532;49.398;2023-11-18T04:36:30;-3.15;68.23
69715;HTU21D;56981;53.532;49.398;2023-11-18T04:38:57;-3.10;68.01
69715;HTU21D;56981;53.532;49.398;2023-11-18T04:41:23;-3.10;67.32
69715;HTU21D;56981;53.532;49.398;2023-11-18T04:43:49;-3.07;67.87
69715;HTU21D;56981;53.532;49.398;2023-11-18T04:46:16;-3.03;68.17
69715;HTU21D;56981;53.532;49.398;2023-11-18T04:48:43;-3.01;68.09
69715;HTU21D;56981;53.532;49.398;2023-11-18T04:51:09;-2.94;68.23
69715;HTU21D;56981;53.532;49.398;2023-11-18T04:53:35;-2.89;68.07
69715;HTU21D;56981;53.532;49.398;2023-11-18T04:56:01;-2.92;67.64
69715;HTU21D;56981;53.532;49.398;2023-11-18T04:58:28;-3.00;68.39
69715;HTU21D;56981;53.532;49.398;2023-11-18T05:00:55;-3.01;67.45
69715;HTU21D;56981;53.532;49.398;2023-11-18T05:03:22;-3.02;67.58
69715;HTU21D;56981;53.532;49.398;2023-11-18T05:05:49;-3.03;68.14
69715;HTU21D;56981;53.532;49.398;2023-11-18T05:08:19;-3.06;67.28
69715;HTU21D;56981;53.532;49.398;2023-11-18T05:10:47;-3.09;67.23
69715;HTU21D;56981;53.532;49.398;2023-11-18T05:13:14;-3.09;67.54
69715;HTU21D;56981;53.532;49.398;2023-11-18T05:15:46;-3.10;67.48
69715;HTU21D;56981;53.532;49.398;2023-11-18T05:18:13;-3.16;66.47
69715;HTU21D;56981;53.532;49.398;2023-11-18T05:20:42;-3.19;65.95
69715;HTU21D;56981;53.532;49.398;2023-11-18T05:23:08;-3.16;66.83
69715;HTU21D;56981;53.532;49.398;2023-11-18T05:25:39;-3.20;66.95
69715;HTU21D;56981;53.532;49.398;2023-11-18T05:28:06;-3.22;66.14
69715;HTU21D;56981;53.532;49.398;2023-11-18T05:30:35;-3.26;66.15
69715;HTU21D;56981;53.532;49.398;2023-11-18T05:33:05;-3.19;65.24
69715;HTU21D;56981;53.532;49.398;2023-11-18T05:35:32;-3.12;65.07
69715;HTU21D;56981;53.532;49.398;2023-11-18T05:37:59;-3.18;63.19
69715;HTU21D;56981;53.532;49.398;2023-11-18T05:40:26;-3.15;64.10
69715;HTU21D;56981;53.532;49.398;2023-11-18T05:42:52;-3.09;63.60
69715;HTU21D;56981;53.532;49.398;2023-11-18T05:45:20;-3.07;63.53
69715;HTU21D;56981;53.532;49.398;2023-11-18T05:48:03;-2.96;63.81
69715;HTU21D;56981;53.532;49.398;2023-11-18T05:50:29;-2.92;63.36
69715;HTU21D;56981;53.532;49.398;2023-11-18T05:52:55;-3.00;63.20
69715;HTU21D;56981;53.532;49.398;2023-11-18T05:55:21;-3.05;63.09
69715;HTU21D;56981;53.532;49.398;2023-11-18T05:57:47;-2.93;63.07
69715;HTU21D;56981;53.532;49.398;2023-11-18T06:00:14;-2.89;63.37
69715;HTU21D;56981;53.532;49.398;2023-11-18T06:02:42;-2.81;61.80
69715;HTU21D;56981;53.532;49.398;2023-11-18T06:05:09;-2.87;62.43
69715;HTU21D;56981;53.532;49.398;2023-11-18T06:07:36;-2.86;61.85
69715;HTU21D;56981;53.532;49.398;2023-11-18T06:10:02;-2.86;61.91
69715;HTU21D;56981;53.532;49.398;2023-11-18T06:12:31;-2.82;62.24
69715;HTU21D;56981;53.532;49.398;2023-11-18T06:14:57;-2.83;61.96
69715;HTU21D;56981;53.532;49.398;2023-11-18T06:17:23;-2.79;63.36
69715;HTU21D;56981;53.532;49.398;2023-11-18T06:19:50;-2.71;62.08
69715;HTU21D;56981;53.532;49.398;2023-11-18T06:22:16;-2.78;61.96
69715;HTU21D;56981;53.532;49.398;2023-11-18T06:24:42;-2.76;63.00
69715;HTU21D;56981;53.532;49.398;2023-11-18T06:27:08;-2.75;62.62
69715;HTU21D;56981;53.532;49.398;2023-11-18T06:29:35;-2.62;63.68
69715;HTU21D;56981;53.532;49.398;2023-11-18T06:32:02;-2.54;62.04
69715;HTU21D;56981;53.532;49.398;2023-11-18T06:34:28;-2.47;63.02
69715;HTU21D;56981;53.532;49.398;2023-11-18T06:36:54;-2.37;62.93
69715;HTU21D;56981;53.532;49.398;2023-11-18T06:39:21;-2.37;61.57
69715;HTU21D;56981;53.532;49.398;2023-11-18T06:41:56;-2.44;61.39
69715;HTU21D;56981;53.532;49.398;2023-11-18T06:44:23;-2.56;61.86
69715;HTU21D;56981;53.532;49.398;2023-11-18T06:46:50;-2.53;61.37
69715;HTU21D;56981;53.532;49.398;2023-11-18T06:49:17;-2.56;61.65
69715;HTU21D;56981;53.532;49.398;2023-11-18T06:51:44;-2.54;61.92
69715;HTU21D;56981;53.532;49.398;2023-11-18T06:54:11;-2.51;62.64
69715;HTU21D;56981;53.532;49.398;2023-11-18T06:56:40;-2.53;62.76
69715;HTU21D;56981;53.532;49.398;2023-11-18T06:59:11;-2.44;62.82
69715;HTU21D;56981;53.532;49.398;2023-11-18T07:01:41;-2.42;62.28
69715;HTU21D;56981;53.532;49.398;2023-11-18T07:04:11;-2.48;62.29
69715;HTU21D;56981;53.532;49.398;2023-11-18T07:06:38;-2.46;62.18
69715;HTU21D;56981;53.532;49.398;2023-11-18T07:09:05;-2.52;61.73
69715;HTU21D;56981;53.532;49.398;2023-11-18T07:11:41;-2.48;60.83
69715;HTU21D;56981;53.532;49.398;2023-11-18T07:14:11;-2.50;61.33
69715;HTU21D;56981;53.532;49.398;2023-11-18T07:16:39;-2.50;61.77
69715;HTU21D;56981;53.532;49.398;2023-11-18T07:19:05;-2.44;62.03
69715;HTU21D;56981;53.532;49.398;2023-11-18T07:21:32;-2.43;61.80
69715;HTU21D;56981;53.532;49.398;2023-11-18T07:24:03;-2.42;61.26
69715;HTU21D;56981;53.532;49.398;2023-11-18T07:26:29;-2.39;61.41
69715;HTU21D;56981;53.532;49.398;2023-11-18T07:28:55;-2.39;60.90
69715;HTU21D;56981;53.532;49.398;2023-11-18T07:31:22;-2.30;61.00
69715;HTU21D;56981;53.532;49.398;2023-11-18T07:33:48;-2.19;60.11
69715;HTU21D;56981;53.532;49.398;2023-11-18T07:36:16;-2.06;60.32
69715;HTU21D;56981;53.532;49.398;2023-11-18T07:38:42;-2.01;59.63
69715;HTU21D;56981;53.532;49.398;2023-11-18T07:41:09;-1.94;59.27
69715;HTU21D;56981;53.532;49.398;2023-11-18T07:43:36;-2.06;59.64
69715;HTU21D;56981;53.532;49.398;2023-11-18T07:46:07;-2.41;58.68
69715;HTU21D;56981;53.532;49.398;2023-11-18T07:48:33;-2.51;58.75
69715;HTU21D;56981;53.532;49.398;2023-11-18T07:51:01;-2.57;59.25
69715;HTU21D;56981;53.532;49.398;2023-11-18T07:53:27;-2.45;59.56
69715;HTU21D;56981;53.532;49.398;2023-11-18T07:55:55;-2.33;58.27
69715;HTU21D;56981;53.532;49.398;2023-11-18T07:58:21;-2.49;58.15
69715;HTU21D;56981;53.532;49.398;2023-11-18T08:00:48;-2.52;59.20
69715;HTU21D;56981;53.532;49.398;2023-11-18T08:03:15;-2.34;59.17
69715;HTU21D;56981;53.532;49.398;2023-11-18T08:05:43;-2.36;59.03
69715;HTU21D;56981;53.532;49.398;2023-11-18T08:08:13;-2.20;58.74
69715;HTU21D;56981;53.532;49.398;2023-11-18T08:10:41;-2.04;57.26
69715;HTU21D;56981;53.532;49.398;2023-11-18T08:13:08;-1.91;57.00
69715;HTU21D;56981;53.532;49.398;2023-11-18T08:15:37;-1.88;57.80
69715;HTU21D;56981;53.532;49.398;2023-11-18T08:18:03;-2.05;57.41
69715;HTU21D;56981;53.532;49.398;2023-11-18T08:20:29;-2.10;58.32
69715;HTU21D;56981;53.532;49.398;2023-11-18T08:22:56;-1.77;58.12
69715;HTU21D;56981;53.532;49.398;2023-11-18T08:25:22;-1.73;58.22
69715;HTU21D;56981;53.532;49.398;2023-11-18T08:27:48;-1.69;57.24
69715;HTU21D;56981;53.532;49.398;2023-11-18T08:30:15;-1.60;58.26
69715;HTU21D;56981;53.532;49.398;2023-11-18T08:32:45;-1.61;57.61
69715;HTU21D;56981;53.532;49.398;2023-11-18T08:35:12;-1.84;58.11
69715;HTU21D;56981;53.532;49.398;2023-11-18T08:37:42;-1.86;59.06
69715;HTU21D;56981;53.532;49.398;2023-11-18T08:40:08;-2.00;58.90
69715;HTU21D;56981;53.532;49.398;2023-11-18T08:42:45;-2.04;59.19
69715;HTU21D;56981;53.532;49.398;2023-11-18T08:45:19;-2.01;60.16
69715;HTU21D;56981;53.532;49.398;2023-11-18T08:47:48;-1.94;60.28
69715;HTU21D;56981;53.532;49.398;2023-11-18T08:50:16;-1.92;60.02
69715;HTU21D;56981;53.532;49.398;2023-11-18T08:52:45;-2.00;60.01
69715;HTU21D;56981;53.532;49.398;2023-11-18T08:55:15;-2.17;60.15
69715;HTU21D;56981;53.532;49.398;2023-11-18T08:57:51;-2.17;61.76
69715;HTU21D;56981;53.532;49.398;2023-11-18T09:00:31;-2.09;60.64
69715;HTU21D;56981;53.532;49.398;2023-11-18T09:03:18;-2.17;61.03
69715;HTU21D;56981;53.532;49.398;2023-11-18T09:08:27;-2.10;62.04
69715;HTU21D;56981;53.532;49.398;2023-11-18T09:10:56;-2.02;61.54
69715;HTU21D;56981;53.532;49.398;2023-11-18T09:13:24;-2.04;61.87
69715;HTU21D;56981;53.532;49.398;2023-11-18T09:16:04;-2.09;61.31
69715;HTU21D;56981;53.532;49.398;2023-11-18T09:18:35;-2.23;60.56
69715;HTU21D;56981;53.532;49.398;2023-11-18T09:21:02;-2.20;61.15
69715;HTU21D;56981;53.532;49.398;2023-11-18T09:23:30;-2.04;62.34
69715;HTU21D;56981;53.532;49.398;2023-11-18T09:25:57;-2.15;61.41
69715;HTU21D;56981;53.532;49.398;2023-11-18T09:28:24;-2.29;61.67
69715;HTU21D;56981;53.532;49.398;2023-11-18T09:30:51;-2.28;62.68
69715;HTU21D;56981;53.532;49.398;2023-11-18T09:33:20;-2.22;61.80
69715;HTU21D;56981;53.532;49.398;2023-11-18T09:35:55;-2.19;61.41
69715;HTU21D;56981;53.532;49.398;2023-11-18T09:38:34;-2.21;62.41
69715;HTU21D;56981;53.532;49.398;2023-11-18T09:41:03;-2.16;61.73
69715;HTU21D;56981;53.532;49.398;2023-11-18T09:43:30;-2.22;61.60
69715;HTU21D;56981;53.532;49.398;2023-11-18T09:46:04;-2.34;62.05
69715;HTU21D;56981;53.532;49.398;2023-11-18T09:49:12;-2.39;62.38
69715;HTU21D;56981;53.532;49.398;2023-11-18T09:51:44;-2.38;62.04
69715;HTU21D;56981;53.532;49.398;2023-11-18T09:57:14;-2.36;62.79
69715;HTU21D;56981;53.532;49.398;2023-11-18T10:00:01;-2.41;62.46
69715;HTU21D;56981;53.532;49.398;2023-11-18T10:02:49;-2.36;62.44
69715;HTU21D;56981;53.532;49.398;2023-11-18T10:05:22;-2.41;62.69
69715;HTU21D;56981;53.532;49.398;2023-11-18T10:07:49;-2.39;63.24
69715;HTU21D;56981;53.532;49.398;2023-11-18T10:10:16;-2.48;60.96
69715;HTU21D;56981;53.532;49.398;2023-11-18T10:12:46;-2.51;61.88
69715;HTU21D;56981;53.532;49.398;2023-11-18T10:15:21;-2.50;60.86
69715;HTU21D;56981;53.532;49.398;2023-11-18T10:17:52;-2.50;61.14
69715;HTU21D;56981;53.532;49.398;2023-11-18T10:23:15;-2.57;61.28
69715;HTU21D;56981;53.532;49.398;2023-11-18T10:28:26;-2.47;61.03
69715;HTU21D;56981;53.532;49.398;2023-11-18T10:31:05;-2.37;62.25
69715;HTU21D;56981;53.532;49.398;2023-11-18T10:33:34;-2.45;61.47
69715;HTU21D;56981;53.532;49.398;2023-11-18T10:36:03;-2.44;61.02
69715;HTU21D;56981;53.532;49.398;2023-11-18T10:38:37;-2.48;61.70
69715;HTU21D;56981;53.532;49.398;2023-11-18T10:41:05;-2.43;62.34
69715;HTU21D;56981;53.532;49.398;2023-11-18T10:43:32;-2.39;60.98
69715;HTU21D;56981;53.532;49.398;2023-11-18T10:46:09;-2.34;61.54
69715;HTU21D;56981;53.532;49.398;2023-11-18T10:48:39;-2.37;61.47
69715;HTU21D;56981;53.532;49.398;2023-11-18T10:51:08;-2.41;61.45
69715;HTU21D;56981;53.532;49.398;2023-11-18T10:53:34;-2.46;60.84
69715;HTU21D;56981;53.532;49.398;2023-11-18T10:56:05;-2.48;61.39
69715;HTU21D;56981;53.532;49.398;2023-11-18T10:58:37;-2.58;62.24
69715;HTU21D;56981;53.532;49.398;2023-11-18T11:01:07;-2.71;62.13
69715;HTU21D;56981;53.532;49.398;2023-11-18T11:03:53;-2.59;63.16
69715;HTU21D;56981;53.532;49.398;2023-11-18T11:06:26;-2.61;62.88
69715;HTU21D;56981;53.532;49.398;2023-11-18T11:08:57;-2.66;63.27
69715;HTU21D;56981;53.532;49.398;2023-11-18T11:11:39;-2.67;62.95
69715;HTU21D;56981;53.532;49.398;2023-11-18T11:14:06;-2.71;62.92
69715;HTU21D;56981;53.532;49.398;2023-11-18T11:16:42;-2.90;62.57
69715;HTU21D;56981;53.532;49.398;2023-11-18T11:19:24;-2.95;62.47
69715;HTU21D;56981;53.532;49.398;2023-11-18T11:22:05;-2.88;63.82
69715;HTU21D;56981;53.532;49.398;2023-11-18T11:24:54;-2.86;62.92
69715;HTU21D;56981;53.532;49.398;2023-11-18T11:27:28;-2.78;64.21
69715;HTU21D;56981;53.532;49.398;2023-11-18T11:30:14;-2.91;63.83
69715;HTU21D;56981;53.532;49.398;2023-11-18T11:32:53;-2.94;63.59
69715;HTU21D;56981;53.532;49.398;2023-11-18T11:35:31;-3.02;63.66
69715;HTU21D;56981;53.532;49.398;2023-11-18T11:37:59;-3.01;63.65
69715;HTU21D;56981;53.532;49.398;2023-11-18T11:40:33;-3.02;63.92
69715;HTU21D;56981;53.532;49.398;2023-11-18T11:43:00;-3.05;63.61
69715;HTU21D;56981;53.532;49.398;2023-11-18T11:45:30;-3.10;63.50
69715;HTU21D;56981;53.532;49.398;2023-11-18T11:47:59;-3.22;64.36
69715;HTU21D;56981;53.532;49.398;2023-11-18T11:50:53;-3.22;64.87
69715;HTU21D;56981;53.532;49.398;2023-11-18T11:53:22;-3.26;64.01
69715;HTU21D;56981;53.532;49.398;2023-11-18T11:55:52;-3.19;64.66
69715;HTU21D;56981;53.532;49.398;2023-11-18T11:58:28;-3.21;63.84
69715;HTU21D;56981;53.532;49.398;2023-11-18T12:01:21;-3.31;64.16
69715;HTU21D;56981;53.532;49.398;2023-11-18T12:03:52;-3.41;64.84
69715;HTU21D;56981;53.532;49.398;2023-11-18T12:06:24;-3.46;65.19
69715;HTU21D;56981;53.532;49.398;2023-11-18T12:08:52;-3.45;64.97
69715;HTU21D;56981;53.532;49.398;2023-11-18T12:11:19;-3.40;65.53
69715;HTU21D;56981;53.532;49.398;2023-11-18T12:17:03;-3.37;66.27
69715;HTU21D;56981;53.532;49.398;2023-11-18T12:19:50;-3.33;66.07
69715;HTU21D;56981;53.532;49.398;2023-11-18T12:22:25;-3.28;66.67
69715;HTU21D;56981;53.532;49.398;2023-11-18T12:33:04;-3.37;66.80
69715;HTU21D;56981;53.532;49.398;2023-11-18T12:40:56;-3.43;66.57
69715;HTU21D;56981;53.532;49.398;2023-11-18T12:43:46;-3.41;67.03
69715;HTU21D;56981;53.532;49.398;2023-11-18T12:46:49;-3.45;66.63
69715;HTU21D;56981;53.532;49.398;2023-11-18T12:49:17;-3.45;66.56
69715;HTU21D;56981;53.532;49.398;2023-11-18T12:51:50;-3.48;66.59
69715;HTU21D;56981;53.532;49.398;2023-11-18T12:54:21;-3.48;66.79
69715;HTU21D;56981;53.532;49.398;2023-11-18T12:56:51;-3.53;66.97
69715;HTU21D;56981;53.532;49.398;2023-11-18T12:59:20;-3.50;66.76
69715;HTU21D;56981;53.532;49.398;2023-11-18T13:01:50;-3.49;67.77
69715;HTU21D;56981;53.532;49.398;2023-11-18T13:04:23;-3.40;67.24
69715;HTU21D;56981;53.532;49.398;2023-11-18T13:06:53;-3.40;66.52
69715;HTU21D;56981;53.532;49.398;2023-11-18T13:09:22;-3.37;66.65
69715;HTU21D;56981;53.532;49.398;2023-11-18T13:11:58;-3.39;66.65
69715;HTU21D;56981;53.532;49.398;2023-11-18T13:14:26;-3.36;67.20
69715;HTU21D;56981;53.532;49.398;2023-11-18T13:16:55;-3.31;66.90
69715;HTU21D;56981;53.532;49.398;2023-11-18T13:19:28;-3.31;66.33
69715;HTU21D;56981;53.532;49.398;2023-11-18T13:22:13;-3.28;66.49
69715;HTU21D;56981;53.532;49.398;2023-11-18T13:24:41;-3.30;66.72
69715;HTU21D;56981;53.532;49.398;2023-11-18T13:27:13;-3.34;66.41
69715;HTU21D;56981;53.532;49.398;2023-11-18T13:29:48;-3.42;67.16
69715;HTU21D;56981;53.532;49.398;2023-11-18T13:32:19;-3.41;67.34
69715;HTU21D;56981;53.532;49.398;2023-11-18T13:34:51;-3.42;66.91
69715;HTU21D;56981;53.532;49.398;2023-11-18T13:37:18;-3.38;68.00
69715;HTU21D;56981;53.532;49.398;2023-11-18T13:40:00;-3.34;67.19
69715;HTU21D;56981;53.532;49.398;2023-11-18T13:42:29;-3.36;66.94
69715;HTU21D;56981;53.532;49.398;2023-11-18T13:45:00;-3.41;67.65
69715;HTU21D;56981;53.532;49.398;2023-11-18T13:47:34;-3.39;68.37
69715;HTU21D;56981;53.532;49.398;2023-11-18T13:50:01;-3.39;68.26
69715;HTU21D;56981;53.532;49.398;2023-11-18T13:52:32;-3.40;67.84
69715;HTU21D;56981;53.532;49.398;2023-11-18T13:54:58;-3.47;67.83
69715;HTU21D;56981;53.532;49.398;2023-11-18T13:57:26;-3.55;67.65
69715;HTU21D;56981;53.532;49.398;2023-11-18T13:59:53;-3.52;67.28
69715;HTU21D;56981;53.532;49.398;2023-11-18T14:02:20;-3.54;67.28
69715;HTU21D;56981;53.532;49.398;2023-11-18T14:04:47;-3.56;67.97
69715;HTU21D;56981;53.532;49.398;2023-11-18T14:07:15;-3.60;68.98
69715;HTU21D;56981;53.532;49.398;2023-11-18T14:09:44;-3.68;68.19
69715;HTU21D;56981;53.532;49.398;2023-11-18T14:12:13;-3.75;69.04
69715;HTU21D;56981;53.532;49.398;2023-11-18T14:14:39;-3.74;69.15
69715;HTU21D;56981;53.532;49.398;2023-11-18T14:17:07;-3.74;69.28
69715;HTU21D;56981;53.532;49.398;2023-11-18T14:19:36;-3.79;69.69
69715;HTU21D;56981;53.532;49.398;2023-11-18T14:22:04;-3.78;68.89
69715;HTU21D;56981;53.532;49.398;2023-11-18T14:24:35;-3.83;69.25
69715;HTU21D;56981;53.532;49.398;2023-11-18T14:27:06;-3.87;68.68
69715;HTU21D;56981;53.532;49.398;2023-11-18T14:29:36;-3.93;69.04
69715;HTU21D;56981;53.532;49.398;2023-11-18T14:32:04;-3.94;69.29
69715;HTU21D;56981;53.532;49.398;2023-11-18T14:34:32;-3.91;69.40
69715;HTU21D;56981;53.532;49.398;2023-11-18T14:36:59;-3.87;69.13
69715;HTU21D;56981;53.532;49.398;2023-11-18T14:39:30;-3.85;69.61
69715;HTU21D;56981;53.532;49.398;2023-11-18T14:41:56;-3.85;69.53
69715;HTU21D;56981;53.532;49.398;2023-11-18T14:44:22;-3.83;69.50
69715;HTU21D;56981;53.532;49.398;2023-11-18T14:46:49;-3.85;69.78
69715;HTU21D;56981;53.532;49.398;2023-11-18T14:49:15;-3.85;69.39
69715;HTU21D;56981;53.532;49.398;2023-11-18T14:51:43;-3.82;69.59
69715;HTU21D;56981;53.532;49.398;2023-11-18T14:54:09;-3.79;69.01
69715;HTU21D;56981;53.532;49.398;2023-11-18T14:56:37;-3.85;68.94
69715;HTU21D;56981;53.532;49.398;2023-11-18T14:59:03;-3.92;69.06
69715;HTU21D;56981;53.532;49.398;2023-11-18T15:01:32;-3.89;70.22
69715;HTU21D;56981;53.532;49.398;2023-11-18T15:03:59;-3.89;68.84
69715;HTU21D;56981;53.532;49.398;2023-11-18T15:06:27;-3.90;69.68
69715;HTU21D;56981;53.532;49.398;2023-11-18T15:08:54;-3.87;69.63
69715;HTU21D;56981;53.532;49.398;2023-11-18T15:11:23;-3.85;69.68
69715;HTU21D;56981;53.532;49.398;2023-11-18T15:13:51;-3.90;69.74
69715;HTU21D;56981;53.532;49.398;2023-11-18T15:16:23;-3.82;70.19
69715;HTU21D;56981;53.532;49.398;2023-11-18T15:18:49;-3.85;69.83
69715;HTU21D;56981;53.532;49.398;2023-11-18T15:21:18;-3.86;70.61
69715;HTU21D;56981;53.532;49.398;2023-11-18T15:23:45;-3.86;70.81
69715;HTU21D;56981;53.532;49.398;2023-11-18T15:26:14;-3.90;70.13
69715;HTU21D;56981;53.532;49.398;2023-11-18T15:28:40;-3.90;70.27
69715;HTU21D;56981;53.532;49.398;2023-11-18T15:31:10;-3.94;70.58
69715;HTU21D;56981;53.532;49.398;2023-11-18T15:33:38;-3.96;70.74
69715;HTU21D;56981;53.532;49.398;2023-11-18T15:36:05;-4.02;70.66
69715;HTU21D;56981;53.532;49.398;2023-11-18T15:38:33;-4.06;70.97
69715;HTU21D;56981;53.532;49.398;2023-11-18T15:41:00;-4.05;70.96
69715;HTU21D;56981;53.532;49.398;2023-11-18T15:43:27;-4.06;71.41
69715;HTU21D;56981;53.532;49.398;2023-11-18T15:45:55;-4.10;71.25